Time;durP1;ratioP1;P1;durP2;ratioP2;P2;SDS_P1;SDS_P2;PMS_P1;PMS_P2;Temp;Humidity;BMP_temperature;BMP_pressure;BME280_temperature;BME280_humidity;BME280_pressure;Samples;Min_cycle;Max_cycle;Signal;HPM_P1;HPM_P2
2022/11/20 00:00:44;;;;;;;;;;;-1.00;99.90;;;;;;5072153;28;20425;-76
2022/11/20 00:03:10;;;;;;;;;;;-1.00;99.90;;;;;;5070254;28;19931;-75
2022/11/20 00:05:35;;;;;;;;;;;-1.00;99.90;;;;;;5071788;28;19935;-75
2022/11/20 00:08:01;;;;;;;;;;;-0.90;99.90;;;;;;5071818;28;19924;-76
2022/11/20 00:10:27;;;;;;;;;;;-1.10;99.90;;;;;;5071995;28;20272;-76
2022/11/20 00:12:52;;;;;;;;;;;0.20;99.90;;;;;;5072087;28;20589;-76
2022/11/20 00:15:18;;;;;;;;;;;-0.90;99.90;;;;;;5054424;28;19920;-75
2022/11/20 00:17:43;;;;;;;;;;;-1.10;99.90;;;;;;5051472;28;19925;-75
2022/11/20 00:20:09;;;;;;;;;;;-1.00;99.90;;;;;;5051786;28;19928;-75
2022/11/20 00:22:35;;;;;;;;;;;-0.90;99.90;;;;;;5051618;28;20015;-76
2022/11/20 00:25:00;;;;;;;;;;;-1.10;99.90;;;;;;5052580;28;20023;-75
2022/11/20 00:27:26;;;;;;;;;;;-0.90;99.90;;;;;;5051850;28;19920;-76
2022/11/20 00:29:51;;;;;;;;;;;-0.80;99.90;;;;;;5050428;28;20525;-75
2022/11/20 00:32:17;;;;;;;;;;;-0.80;99.90;;;;;;5051182;28;19925;-75
2022/11/20 00:34:43;;;;;;;;;;;-0.80;99.90;;;;;;5051547;28;19929;-77
2022/11/20 00:37:08;;;;;;;;;;;-0.80;99.90;;;;;;5051883;28;19931;-75
2022/11/20 00:39:34;;;;;;;;;;;-0.80;99.90;;;;;;5049802;28;19932;-75
2022/11/20 00:41:59;;;;;;;;;;;-0.80;99.90;;;;;;5051335;28;19931;-76
2022/11/20 00:44:25;;;;;;;;;;;-0.80;99.90;;;;;;5051131;28;19921;-75
2022/11/20 00:46:50;;;;;;;;;;;-0.70;99.90;;;;;;5051944;28;19940;-75
2022/11/20 00:49:16;;;;;;;;;;;-0.70;99.90;;;;;;5050764;28;19924;-76
2022/11/20 00:51:42;;;;;;;;;;;-0.70;99.90;;;;;;5051086;28;19972;-75
2022/11/20 00:54:07;;;;;;;;;;;-0.70;99.90;;;;;;5050752;28;19973;-75
2022/11/20 00:56:33;;;;;;;;;;;-0.70;99.90;;;;;;5051809;28;19963;-75
2022/11/20 00:58:59;;;;;;;;;;;-0.70;99.90;;;;;;5050920;28;20257;-75
2022/11/20 01:01:25;;;;;;;;;;;-0.70;99.90;;;;;;5050707;28;20338;-75
2022/11/20 01:03:52;;;;;;;;;;;-0.60;99.90;;;;;;5050922;28;19924;-75
2022/11/20 01:06:19;;;;;;;;;;;-0.60;99.90;;;;;;5050787;28;19940;-75
2022/11/20 01:08:45;;;;;;;;;;;-0.60;99.90;;;;;;5051615;28;19990;-75
2022/11/20 01:11:12;;;;;;;;;;;-0.60;99.90;;;;;;5050500;28;19925;-75
2022/11/20 01:13:38;;;;;;;;;;;-0.60;99.90;;;;;;5050715;28;19925;-75
2022/11/20 01:16:11;;;;;;;;;;;-0.60;99.90;;;;;;5050302;28;19927;-75
2022/11/20 01:18:37;;;;;;;;;;;-0.50;99.90;;;;;;5050179;28;19963;-75
2022/11/20 01:21:05;;;;;;;;;;;-0.50;99.90;;;;;;5050572;28;19982;-75
2022/11/20 01:23:34;;;;;;;;;;;-0.50;99.90;;;;;;5050358;28;19924;-75
2022/11/20 01:26:04;;;;;;;;;;;-0.50;99.90;;;;;;5050740;28;19975;-75
2022/11/20 01:28:30;;;;;;;;;;;-0.50;99.90;;;;;;5051776;28;19921;-76
2022/11/20 01:30:55;;;;;;;;;;;-0.50;99.90;;;;;;5049276;28;19967;-75
2022/11/20 01:33:21;;;;;;;;;;;-0.50;99.90;;;;;;5050146;28;20351;-76
2022/11/20 01:35:46;;;;;;;;;;;-0.40;99.90;;;;;;5051720;28;19966;-76
2022/11/20 01:38:12;;;;;;;;;;;-0.40;99.90;;;;;;5050488;28;19932;-76
2022/11/20 01:40:38;;;;;;;;;;;-0.50;99.90;;;;;;5048718;28;20022;-76
2022/11/20 01:43:22;;;;;;;;;;;-0.40;99.90;;;;;;5050394;28;20024;-75
2022/11/20 01:46:06;;;;;;;;;;;-0.50;99.90;;;;;;5051246;28;19994;-75
2022/11/20 01:48:55;;;;;;;;;;;-0.40;99.90;;;;;;5050080;28;19925;-76
2022/11/20 01:51:25;;;;;;;;;;;-0.40;99.90;;;;;;5007760;28;20297;-75
2022/11/20 01:53:53;;;;;;;;;;;-0.40;99.90;;;;;;4991420;28;19925;-75
2022/11/20 01:56:19;;;;;;;;;;;-0.40;99.90;;;;;;5007607;28;20292;-75
2022/11/20 01:58:48;;;;;;;;;;;-0.40;99.90;;;;;;5007777;28;19921;-76
2022/11/20 02:01:14;;;;;;;;;;;-0.30;99.90;;;;;;5007719;28;19925;-75
2022/11/20 02:03:40;;;;;;;;;;;-0.30;99.90;;;;;;5007442;28;20015;-76
2022/11/20 02:06:05;;;;;;;;;;;-0.30;99.90;;;;;;5007766;28;20004;-76
2022/11/20 02:08:32;;;;;;;;;;;-0.40;99.90;;;;;;4990953;28;19961;-75
2022/11/20 02:10:57;;;;;;;;;;;-0.30;99.90;;;;;;5007566;28;19925;-75
2022/11/20 02:16:22;;;;;;;;;;;0.70;99.90;;;;;;5007798;28;19940;-75
2022/11/20 02:18:48;;;;;;;;;;;-0.30;99.90;;;;;;5007197;28;19995;-75
2022/11/20 02:21:25;;;;;;;;;;;-0.30;99.90;;;;;;5007849;28;19925;-77
2022/11/20 02:23:51;;;;;;;;;;;-0.30;99.90;;;;;;5007479;28;19971;-77
2022/11/20 02:26:17;;;;;;;;;;;-0.30;99.90;;;;;;5007714;28;19926;-76
2022/11/20 02:28:43;;;;;;;;;;;-0.30;99.90;;;;;;5026894;28;19935;-77
2022/11/20 02:31:09;;;;;;;;;;;0.70;99.90;;;;;;5068376;28;19921;-76
2022/11/20 02:33:34;;;;;;;;;;;-0.30;99.90;;;;;;5069301;28;20725;-76
2022/11/20 02:36:00;;;;;;;;;;;-0.30;99.90;;;;;;5069685;28;19925;-77
2022/11/20 02:38:25;;;;;;;;;;;-0.20;99.90;;;;;;5069843;28;20015;-75
2022/11/20 02:40:51;;;;;;;;;;;-0.20;99.90;;;;;;5068042;28;20015;-77
2022/11/20 02:43:16;;;;;;;;;;;-0.20;99.90;;;;;;5069245;28;19965;-76
2022/11/20 02:45:42;;;;;;;;;;;-0.20;99.90;;;;;;5068715;28;20403;-76
2022/11/20 02:48:07;;;;;;;;;;;-0.20;99.90;;;;;;5069689;28;19924;-75
2022/11/20 02:50:33;;;;;;;;;;;-0.20;99.90;;;;;;5066704;28;20026;-76
2022/11/20 02:52:58;;;;;;;;;;;-0.20;99.90;;;;;;5070345;28;20014;-76
2022/11/20 02:55:24;;;;;;;;;;;-0.20;99.90;;;;;;5071874;28;19920;-76
2022/11/20 02:57:49;;;;;;;;;;;-0.20;99.90;;;;;;5073071;28;19927;-75
2022/11/20 03:00:15;;;;;;;;;;;-0.20;99.90;;;;;;5070542;28;19922;-75
2022/11/20 03:02:41;;;;;;;;;;;-0.20;99.90;;;;;;5053131;28;20367;-76
2022/11/20 03:05:06;;;;;;;;;;;-0.20;99.90;;;;;;5052844;28;20379;-76
2022/11/20 03:07:32;;;;;;;;;;;-0.20;99.90;;;;;;5051351;28;20353;-76
2022/11/20 03:09:57;;;;;;;;;;;-0.20;99.90;;;;;;5052787;28;19935;-76
2022/11/20 03:12:23;;;;;;;;;;;-0.20;99.90;;;;;;5053908;28;20326;-76
2022/11/20 03:14:48;;;;;;;;;;;-0.20;99.90;;;;;;5051283;28;19932;-75
2022/11/20 03:17:14;;;;;;;;;;;-0.10;99.90;;;;;;5051298;28;19978;-75
2022/11/20 03:19:39;;;;;;;;;;;0.50;99.90;;;;;;5034243;28;19978;-75
2022/11/20 03:22:05;;;;;;;;;;;-0.10;99.90;;;;;;5053693;28;19921;-75
2022/11/20 03:24:30;;;;;;;;;;;-0.10;99.90;;;;;;5051065;28;19974;-76
2022/11/20 03:26:56;;;;;;;;;;;-0.10;99.90;;;;;;5052576;28;20265;-76
2022/11/20 03:29:21;;;;;;;;;;;-0.10;99.90;;;;;;5052321;28;19966;-76
2022/11/20 03:31:47;;;;;;;;;;;-0.10;99.90;;;;;;5050979;28;19935;-76
2022/11/20 03:34:13;;;;;;;;;;;-0.10;99.90;;;;;;5053031;28;19928;-76
2022/11/20 03:36:39;;;;;;;;;;;-0.10;99.90;;;;;;5052140;28;19924;-76
2022/11/20 03:39:04;;;;;;;;;;;-0.10;99.90;;;;;;5052276;28;19964;-77
2022/11/20 03:41:31;;;;;;;;;;;-0.10;99.90;;;;;;5060996;28;20349;-76
2022/11/20 03:44:00;;;;;;;;;;;-0.10;99.90;;;;;;5060995;28;19927;-77
2022/11/20 03:46:26;;;;;;;;;;;-0.10;99.90;;;;;;5052341;28;19920;-77
2022/11/20 03:48:52;;;;;;;;;;;-0.10;99.90;;;;;;5056847;28;19920;-77
2022/11/20 03:51:19;;;;;;;;;;;0.50;99.90;;;;;;5071321;28;20642;-78
2022/11/20 03:53:45;;;;;;;;;;;-0.20;99.90;;;;;;5070362;28;20012;-78
2022/11/20 03:56:11;;;;;;;;;;;-0.20;99.90;;;;;;5062090;28;20023;-76
2022/11/20 03:58:40;;;;;;;;;;;-0.20;99.90;;;;;;5050422;28;19959;-78
2022/11/20 04:01:10;;;;;;;;;;;-0.10;99.90;;;;;;5050388;28;19924;-77
2022/11/20 04:03:37;;;;;;;;;;;-0.10;99.90;;;;;;5059483;28;19928;-78
2022/11/20 04:06:03;;;;;;;;;;;-0.10;99.90;;;;;;5071297;28;19925;-76
2022/11/20 04:08:30;;;;;;;;;;;-0.10;99.90;;;;;;5046288;28;19928;-76
2022/11/20 04:10:55;;;;;;;;;;;-0.10;99.90;;;;;;5051731;28;20357;-76
2022/11/20 04:13:21;;;;;;;;;;;-0.10;99.90;;;;;;5051504;28;20050;-76
2022/11/20 04:15:46;;;;;;;;;;;-0.10;99.90;;;;;;5066614;28;19920;-77
2022/11/20 04:18:12;;;;;;;;;;;-0.10;99.90;;;;;;5071433;28;19924;-77
2022/11/20 04:20:37;;;;;;;;;;;-0.10;99.90;;;;;;5070015;28;20557;-76
2022/11/20 04:23:03;;;;;;;;;;;-0.10;99.90;;;;;;5071465;28;19924;-77
2022/11/20 04:25:29;;;;;;;;;;;-0.10;99.90;;;;;;5065926;28;20380;-77
2022/11/20 04:27:54;;;;;;;;;;;-0.10;99.90;;;;;;5051328;28;20023;-77
2022/11/20 04:30:20;;;;;;;;;;;-0.10;99.90;;;;;;5050070;28;20007;-76
2022/11/20 04:32:45;;;;;;;;;;;-0.10;99.90;;;;;;5050910;28;19924;-77
2022/11/20 04:35:11;;;;;;;;;;;-0.10;99.90;;;;;;5055645;28;19924;-76
2022/11/20 04:37:36;;;;;;;;;;;0.00;99.90;;;;;;5070919;28;19924;-77
2022/11/20 04:40:02;;;;;;;;;;;0.00;99.90;;;;;;5067159;28;19987;-77
2022/11/20 04:42:30;;;;;;;;;;;0.00;99.90;;;;;;5049603;28;20365;-76
2022/11/20 04:44:56;;;;;;;;;;;0.00;99.90;;;;;;5049884;28;19928;-75
2022/11/20 04:47:22;;;;;;;;;;;0.10;99.90;;;;;;5054583;28;19924;-77
2022/11/20 04:49:47;;;;;;;;;;;0.10;99.90;;;;;;5070474;28;20355;-77
2022/11/20 04:52:13;;;;;;;;;;;0.00;99.90;;;;;;5069378;28;19928;-77
2022/11/20 04:54:39;;;;;;;;;;;0.00;99.90;;;;;;5069199;28;19935;-77
2022/11/20 04:57:04;;;;;;;;;;;0.00;99.90;;;;;;5068543;28;20458;-77
2022/11/20 04:59:30;;;;;;;;;;;0.10;99.90;;;;;;5070797;28;19931;-77
2022/11/20 05:01:55;;;;;;;;;;;0.00;99.90;;;;;;5070524;28;19969;-76
2022/11/20 05:04:21;;;;;;;;;;;0.10;99.90;;;;;;5064548;28;19970;-77
2022/11/20 05:06:46;;;;;;;;;;;0.80;99.90;;;;;;5068321;28;19928;-76
2022/11/20 05:09:12;;;;;;;;;;;0.10;99.90;;;;;;5070468;28;19990;-76
2022/11/20 05:11:38;;;;;;;;;;;0.10;99.90;;;;;;5065289;28;19925;-76
2022/11/20 05:14:03;;;;;;;;;;;0.70;99.90;;;;;;5050514;28;19928;-77
2022/11/20 05:16:29;;;;;;;;;;;0.10;99.90;;;;;;5049881;28;19920;-76
2022/11/20 05:18:55;;;;;;;;;;;0.20;99.90;;;;;;5033592;28;19927;-76
2022/11/20 05:21:21;;;;;;;;;;;0.20;99.90;;;;;;5049072;28;19924;-77
2022/11/20 05:23:46;;;;;;;;;;;0.20;99.90;;;;;;5049793;28;19925;-76
2022/11/20 05:26:16;;;;;;;;;;;0.20;99.90;;;;;;5050528;28;19924;-75
2022/11/20 05:28:41;;;;;;;;;;;0.20;99.90;;;;;;5062319;28;19924;-77
2022/11/20 05:31:08;;;;;;;;;;;0.20;99.90;;;;;;5050007;28;19951;-77
2022/11/20 05:33:34;;;;;;;;;;;0.20;99.90;;;;;;5049987;28;20280;-77
2022/11/20 05:36:00;;;;;;;;;;;0.20;99.90;;;;;;5051365;28;19932;-77
2022/11/20 05:38:26;;;;;;;;;;;0.20;99.90;;;;;;5068349;28;19921;-77
2022/11/20 05:40:51;;;;;;;;;;;0.20;99.90;;;;;;5068025;28;20026;-77
2022/11/20 05:43:17;;;;;;;;;;;0.20;99.90;;;;;;5050949;28;19978;-77
2022/11/20 05:45:42;;;;;;;;;;;0.20;99.90;;;;;;5050013;28;20295;-77
2022/11/20 05:48:08;;;;;;;;;;;0.20;99.90;;;;;;5049980;28;20463;-77
2022/11/20 05:50:33;;;;;;;;;;;0.20;99.90;;;;;;5050971;28;19924;-77
2022/11/20 05:53:00;;;;;;;;;;;1.00;99.90;;;;;;5050408;28;19920;-77
2022/11/20 05:55:26;;;;;;;;;;;0.20;99.90;;;;;;5050186;28;19921;-76
2022/11/20 05:57:52;;;;;;;;;;;0.30;99.90;;;;;;5050108;28;19947;-77
2022/11/20 06:00:18;;;;;;;;;;;0.30;99.90;;;;;;5050996;28;20531;-77
2022/11/20 06:02:43;;;;;;;;;;;0.30;99.90;;;;;;5057692;28;19924;-77
2022/11/20 06:05:09;;;;;;;;;;;0.20;99.90;;;;;;5069490;28;19935;-77
2022/11/20 06:07:34;;;;;;;;;;;0.20;99.90;;;;;;5069896;28;19943;-77
2022/11/20 06:10:00;;;;;;;;;;;0.30;99.90;;;;;;5054251;28;19928;-77
2022/11/20 06:12:25;;;;;;;;;;;0.20;99.90;;;;;;5049650;28;19921;-77
2022/11/20 06:14:51;;;;;;;;;;;0.70;99.90;;;;;;5049764;28;19924;-77
2022/11/20 06:17:17;;;;;;;;;;;0.40;99.90;;;;;;5060884;28;19928;-77
2022/11/20 06:19:42;;;;;;;;;;;0.30;99.90;;;;;;5070225;28;20322;-78
2022/11/20 06:22:08;;;;;;;;;;;0.30;99.90;;;;;;5068183;28;19925;-77
2022/11/20 06:24:33;;;;;;;;;;;0.30;99.90;;;;;;5067877;28;19928;-78
2022/11/20 06:26:59;;;;;;;;;;;0.30;99.90;;;;;;5069968;28;19931;-77
2022/11/20 06:29:24;;;;;;;;;;;0.30;99.90;;;;;;5070954;28;19925;-77
2022/11/20 06:31:50;;;;;;;;;;;0.30;99.90;;;;;;5071528;28;19927;-77
2022/11/20 06:34:16;;;;;;;;;;;0.30;99.90;;;;;;5072918;28;20330;-77
2022/11/20 06:36:41;;;;;;;;;;;0.30;99.90;;;;;;5064073;28;20296;-77
2022/11/20 06:39:07;;;;;;;;;;;0.30;99.90;;;;;;5053587;28;19975;-76
2022/11/20 06:41:32;;;;;;;;;;;0.30;99.90;;;;;;5054716;28;19928;-78
2022/11/20 06:43:58;;;;;;;;;;;0.60;99.90;;;;;;5053803;28;19939;-78
2022/11/20 06:46:23;;;;;;;;;;;0.30;99.90;;;;;;5053596;28;19924;-78
2022/11/20 06:48:49;;;;;;;;;;;0.30;99.90;;;;;;5053352;28;19924;-78
2022/11/20 06:51:15;;;;;;;;;;;0.30;99.90;;;;;;5053091;28;19925;-77
2022/11/20 06:53:40;;;;;;;;;;;0.30;99.90;;;;;;5054151;28;20325;-78
2022/11/20 06:56:07;;;;;;;;;;;0.30;99.90;;;;;;5051324;28;20348;-77
2022/11/20 06:58:33;;;;;;;;;;;0.30;99.90;;;;;;5053341;28;20288;-78
2022/11/20 07:00:59;;;;;;;;;;;0.30;99.90;;;;;;5053284;28;20015;-78
2022/11/20 07:03:24;;;;;;;;;;;0.30;99.90;;;;;;5060430;28;19921;-78
2022/11/20 07:05:50;;;;;;;;;;;0.30;99.90;;;;;;5052752;28;19951;-77
2022/11/20 07:08:16;;;;;;;;;;;0.30;99.90;;;;;;5051262;28;19920;-78
2022/11/20 07:10:41;;;;;;;;;;;0.30;99.90;;;;;;5052725;28;19925;-79
2022/11/20 07:13:07;;;;;;;;;;;0.30;99.90;;;;;;5052821;28;19920;-79
2022/11/20 07:15:32;;;;;;;;;;;0.30;99.90;;;;;;5055018;28;19959;-78
2022/11/20 07:17:59;;;;;;;;;;;0.30;99.90;;;;;;5052529;28;20355;-78
2022/11/20 07:20:25;;;;;;;;;;;0.50;99.90;;;;;;5052585;28;19928;-78
2022/11/20 07:22:57;;;;;;;;;;;0.30;99.90;;;;;;5067538;28;20322;-79
2022/11/20 07:25:23;;;;;;;;;;;0.20;99.90;;;;;;5070741;28;19924;-78
2022/11/20 07:27:48;;;;;;;;;;;0.20;99.90;;;;;;5071843;28;19924;-78
2022/11/20 07:30:15;;;;;;;;;;;0.60;99.90;;;;;;5063189;28;20338;-77
2022/11/20 07:32:40;;;;;;;;;;;0.30;99.90;;;;;;5047026;28;19963;-78
2022/11/20 07:35:06;;;;;;;;;;;0.20;99.90;;;;;;5053244;28;19979;-79
2022/11/20 07:37:34;;;;;;;;;;;0.30;99.90;;;;;;5063279;28;20500;-79
2022/11/20 07:39:59;;;;;;;;;;;0.20;99.90;;;;;;5071255;28;19928;-78
2022/11/20 07:42:25;;;;;;;;;;;0.20;99.90;;;;;;5070022;28;19924;-76
2022/11/20 07:44:51;;;;;;;;;;;0.20;99.90;;;;;;5071654;28;19920;-77
2022/11/20 07:47:19;;;;;;;;;;;0.30;99.90;;;;;;5063709;28;19979;-77
2022/11/20 07:49:48;;;;;;;;;;;0.30;99.90;;;;;;5052242;28;20027;-77
2022/11/20 07:52:13;;;;;;;;;;;0.30;99.90;;;;;;5052058;28;20499;-78
2022/11/20 07:54:39;;;;;;;;;;;0.30;99.90;;;;;;5053453;28;19924;-77
2022/11/20 07:57:04;;;;;;;;;;;0.30;99.90;;;;;;5052055;28;19928;-77
2022/11/20 07:59:30;;;;;;;;;;;0.30;99.90;;;;;;5052084;28;20261;-76
2022/11/20 08:01:55;;;;;;;;;;;0.30;99.90;;;;;;5063831;28;19935;-77
2022/11/20 08:04:21;;;;;;;;;;;0.30;99.90;;;;;;5071287;28;19975;-79
2022/11/20 08:06:47;;;;;;;;;;;0.30;99.90;;;;;;5056728;28;20405;-78
2022/11/20 08:09:12;;;;;;;;;;;0.30;99.90;;;;;;5051529;28;19975;-77
2022/11/20 08:14:22;;;;;;;;;;;1.60;99.90;;;;;;5055795;28;19986;-78
2022/11/20 08:16:48;;;;;;;;;;;0.30;99.90;;;;;;5070637;28;19924;-77
2022/11/20 08:19:14;;;;;;;;;;;0.20;99.90;;;;;;5069501;28;20380;-79
2022/11/20 08:21:40;;;;;;;;;;;0.20;99.90;;;;;;5064265;28;19920;-78
2022/11/20 08:24:06;;;;;;;;;;;0.20;99.90;;;;;;5051430;28;20386;-79
2022/11/20 08:26:32;;;;;;;;;;;0.20;99.90;;;;;;5062731;28;20470;-76
2022/11/20 08:28:58;;;;;;;;;;;0.20;99.90;;;;;;5070425;28;19924;-79
2022/11/20 08:31:24;;;;;;;;;;;0.20;99.90;;;;;;5051650;28;20347;-79
2022/11/20 08:33:51;;;;;;;;;;;0.20;99.90;;;;;;5052299;28;20288;-79
2022/11/20 08:36:16;;;;;;;;;;;0.30;99.90;;;;;;5051033;28;20431;-79
2022/11/20 08:38:46;;;;;;;;;;;0.30;99.90;;;;;;5049912;28;20028;-79
2022/11/20 08:41:23;;;;;;;;;;;0.30;99.90;;;;;;5052308;28;19921;-79
2022/11/20 08:43:49;;;;;;;;;;;0.30;99.90;;;;;;5044481;28;19925;-78
2022/11/20 08:46:18;;;;;;;;;;;0.30;99.90;;;;;;5051277;28;19962;-80
2022/11/20 08:48:44;;;;;;;;;;;0.40;99.90;;;;;;5052248;28;19924;-77
2022/11/20 08:51:10;;;;;;;;;;;0.30;99.90;;;;;;5065639;28;20389;-77
2022/11/20 08:53:36;;;;;;;;;;;0.30;99.90;;;;;;5067965;28;20017;-77
2022/11/20 08:56:01;;;;;;;;;;;0.40;99.90;;;;;;5052239;28;20398;-78
2022/11/20 08:58:27;;;;;;;;;;;0.40;99.90;;;;;;5050787;28;19926;-78
2022/11/20 09:00:53;;;;;;;;;;;0.40;99.90;;;;;;5050962;28;19928;-78
2022/11/20 09:03:18;;;;;;;;;;;0.40;99.90;;;;;;5058980;28;19920;-76
2022/11/20 09:05:44;;;;;;;;;;;0.50;99.90;;;;;;5069500;28;19975;-77
2022/11/20 09:08:09;;;;;;;;;;;0.50;99.90;;;;;;5069916;28;19920;-78
2022/11/20 09:10:36;;;;;;;;;;;0.50;99.90;;;;;;5066865;28;19924;-78
2022/11/20 09:13:02;;;;;;;;;;;1.60;99.90;;;;;;5067329;28;19920;-77
2022/11/20 09:16:57;;;;;;;15.98;8.63;;;0.60;99.90;;;;;;5156342;27;20110;-80
2022/11/20 09:19:24;;;;;;;13.20;7.95;;;0.70;99.90;;;;;;5148350;27;20035;-80
2022/11/20 09:21:50;;;;;;;12.80;7.32;;;0.60;99.90;;;;;;5146821;27;20046;-77
2022/11/20 09:24:16;;;;;;;15.82;9.23;;;0.70;99.90;;;;;;5124686;28;20409;-78
2022/11/20 09:26:42;;;;;;;14.48;9.30;;;0.70;99.90;;;;;;5132940;27;20039;-79
2022/11/20 09:29:08;;;;;;;15.20;8.15;;;0.70;99.90;;;;;;5135875;27;20678;-77
2022/11/20 09:31:33;;;;;;;13.85;8.63;;;0.70;99.90;;;;;;5128259;27;20043;-78
2022/11/20 09:33:59;;;;;;;13.98;8.25;;;0.70;99.90;;;;;;5129285;27;20047;-80
2022/11/20 09:36:26;;;;;;;18.65;7.63;;;0.70;99.90;;;;;;5120527;27;20108;-80
2022/11/20 09:38:52;;;;;;;13.93;8.55;;;0.70;99.90;;;;;;5129891;27;20051;-80
2022/11/20 09:41:42;;;;;;;14.02;8.30;;;0.70;99.90;;;;;;5130796;27;20043;-80
2022/11/20 09:44:25;;;;;;;12.48;8.00;;;0.70;99.90;;;;;;5127868;28;20044;-80
2022/11/20 09:47:16;;;;;;;13.38;8.13;;;0.80;99.90;;;;;;5127465;28;20558;-80
2022/11/20 09:49:59;;;;;;;13.90;8.40;;;0.80;99.90;;;;;;5127732;27;20808;-81
2022/11/20 09:52:56;;;;;;;16.70;8.15;;;0.80;99.90;;;;;;5127764;28;20177;-79
2022/11/20 09:55:21;;;;;;;12.40;7.85;;;0.80;99.90;;;;;;5119600;28;20047;-80
2022/11/20 09:57:50;;;;;;;12.93;8.30;;;0.90;99.90;;;;;;5127422;28;20058;-80
2022/11/20 10:00:17;;;;;;;14.45;8.40;;;0.90;99.90;;;;;;5127151;28;20035;-80
2022/11/20 10:03:16;;;;;;;14.38;8.48;;;0.90;99.90;;;;;;5132093;27;20138;-78
2022/11/20 10:05:50;;;;;;;12.73;7.82;;;0.90;99.90;;;;;;5129585;27;20043;-80
2022/11/20 10:08:23;;;;;;;14.27;9.18;;;1.00;99.90;;;;;;5109108;28;20256;-80
2022/11/20 10:11:06;;;;;;;14.38;8.45;;;1.10;99.90;;;;;;5127079;28;20515;-80
2022/11/20 10:13:40;;;;;;;13.80;8.27;;;1.20;99.90;;;;;;5127447;28;20439;-80
2022/11/20 10:16:15;;;;;;;14.10;9.10;;;1.20;99.90;;;;;;5127694;27;20565;-81
2022/11/20 10:18:43;;;;;;;;;;;1.20;99.90;;;;;;5092312;28;20494;-82
2022/11/20 10:21:52;;;;;;;11.60;8.63;;;1.20;99.90;;;;;;5091697;28;19924;-82
2022/11/20 10:24:32;;;;;;;12.73;8.57;;;1.30;99.90;;;;;;5026320;28;20068;-81
2022/11/20 10:27:15;;;;;;;13.02;8.70;;;1.40;99.90;;;;;;5037348;28;20046;-81
2022/11/20 10:29:45;;;;;;;15.13;8.48;;;1.40;99.90;;;;;;5030366;28;20061;-81
2022/11/20 10:32:14;;;;;;;14.15;8.07;;;1.50;99.90;;;;;;5021931;28;20909;-82
2022/11/20 10:35:04;;;;;;;16.27;8.73;;;1.60;99.90;;;;;;4993705;28;20062;-80
2022/11/20 10:37:32;;;;;;;14.75;9.00;;;1.60;99.90;;;;;;5008269;28;20488;-82
2022/11/20 10:40:19;;;;;;;13.30;8.40;;;1.60;99.90;;;;;;5013300;28;20045;-81
2022/11/20 10:43:01;;;;;;;14.20;8.45;;;1.70;99.90;;;;;;5029933;28;20100;-82
2022/11/20 10:45:58;;;;;;;14.02;8.55;;;1.70;99.90;;;;;;5013483;28;20092;-83
2022/11/20 10:48:26;;;;;;;11.95;7.90;;;2.00;99.90;;;;;;4957291;28;20065;-81
2022/11/20 10:51:18;;;;;;;13.95;8.30;;;1.70;99.90;;;;;;4983493;28;20117;-79
2022/11/20 10:54:11;;;;;;;12.15;7.57;;;1.70;99.90;;;;;;5001911;22;20053;-82
2022/11/20 10:56:53;;;;;;;15.43;7.90;;;1.70;99.90;;;;;;4987025;28;20046;-80
2022/11/20 10:59:40;;;;;;;13.25;8.30;;;1.80;99.90;;;;;;5003299;23;20140;-81
2022/11/20 11:02:24;;;;;;;13.40;7.78;;;1.80;99.90;;;;;;5003579;23;20398;-80
2022/11/20 11:04:53;;;;;;;12.52;8.02;;;1.90;99.90;;;;;;4984952;28;20454;-80
2022/11/20 11:07:36;;;;;;;12.63;7.55;;;1.80;99.90;;;;;;4992110;28;20046;-77
2022/11/20 11:10:32;;;;;;;12.55;7.95;;;1.90;99.90;;;;;;4973329;28;20548;-75
2022/11/20 11:12:57;;;;;;;;;;;1.90;99.90;;;;;;4973310;28;20122;-76
2022/11/20 11:15:37;;;;;;;12.93;8.05;;;1.90;99.90;;;;;;5016732;23;19924;-78
2022/11/20 11:18:04;;;;;;;11.15;7.03;;;1.80;99.90;;;;;;5065832;28;20049;-80
2022/11/20 11:20:31;;;;;;;11.40;7.43;;;2.00;99.90;;;;;;5033365;28;20488;-75
2022/11/20 11:22:58;;;;;;;14.90;7.72;;;2.10;99.90;;;;;;5050797;28;20059;-74
2022/11/20 11:25:28;;;;;;;13.65;8.35;;;2.10;99.90;;;;;;5051530;28;20045;-75
2022/11/20 11:27:57;;;;;;;13.18;7.78;;;2.20;99.90;;;;;;5051278;28;20047;-75
2022/11/20 11:30:30;;;;;;;14.25;8.05;;;2.20;99.90;;;;;;5114055;22;20020;-80
2022/11/20 11:36:26;;;;;;;12.38;6.93;;;2.40;99.90;;;;;;5050909;28;20494;-78
2022/11/20 11:41:34;;;;;;;10.00;6.68;;;2.50;99.90;;;;;;5122743;22;20081;-80
2022/11/20 11:49:29;;;;;;;11.65;6.22;;;2.70;99.90;;;;;;5015205;23;20492;-82
2022/11/20 11:52:22;;;;;;;8.95;5.15;;;2.70;99.90;;;;;;5010758;28;20054;-80
2022/11/20 11:58:35;;;;;;;8.93;5.65;;;2.90;99.90;;;;;;5009229;28;20080;-80
2022/11/20 12:01:34;;;;;;;8.35;4.40;;;3.20;99.90;;;;;;4998965;28;20054;-76
2022/11/20 12:04:19;;;;;;;7.70;4.40;;;3.40;99.90;;;;;;5010367;28;20050;-76
2022/11/20 12:07:03;;;;;;;6.97;4.23;;;3.60;99.90;;;;;;5009426;28;20057;-76
2022/11/20 12:09:37;;;;;;;7.13;4.63;;;3.70;99.90;;;;;;5009274;28;20493;-76
2022/11/20 12:12:15;;;;;;;7.57;4.60;;;4.80;99.90;;;;;;5010516;28;20048;-78
2022/11/20 12:14:45;;;;;;;8.48;5.60;;;3.70;99.90;;;;;;5010274;28;20312;-80
2022/11/20 12:17:13;;;;;;;9.77;5.25;;;3.80;99.90;;;;;;5010297;28;20125;-77
2022/11/20 12:19:39;;;;;;;6.55;4.22;;;3.90;99.90;;;;;;5009844;28;20045;-73
2022/11/20 12:22:23;;;;;;;8.88;4.20;;;4.10;99.90;;;;;;5001693;28;20489;-77
2022/11/20 12:24:52;;;;;;;6.70;4.22;;;4.20;99.90;;;;;;4991375;28;20042;-76
2022/11/20 12:27:29;;;;;;;8.82;3.85;;;4.40;99.90;;;;;;4991287;28;20049;-76
2022/11/20 12:30:02;;;;;;;7.30;4.00;;;4.40;99.90;;;;;;4990871;28;20125;-76
2022/11/20 12:32:53;;;;;;;6.38;3.97;;;4.30;99.90;;;;;;4999923;28;20062;-76
2022/11/20 12:35:30;;;;;;;8.15;4.18;;;4.30;99.90;;;;;;5003012;28;20037;-77
2022/11/20 12:38:20;;;;;;;7.57;4.75;;;4.20;99.90;;;;;;5008377;28;20077;-76
2022/11/20 12:41:14;;;;;;;7.57;4.68;;;4.10;99.90;;;;;;5007570;28;20069;-77
2022/11/20 12:46:46;;;;;;;8.43;4.90;;;4.00;99.90;;;;;;5010076;28;20085;-78
2022/11/20 12:49:26;;;;;;;7.47;4.63;;;4.10;99.90;;;;;;5011055;28;20064;-78
2022/11/20 12:52:15;;;;;;;7.07;5.05;;;4.10;99.90;;;;;;5010980;28;20057;-75
2022/11/20 12:54:47;;;;;;;7.07;4.32;;;4.20;99.90;;;;;;5009863;28;20041;-77
2022/11/20 12:57:21;;;;;;;7.95;5.00;;;4.30;99.90;;;;;;5008779;28;20065;-79
2022/11/20 13:00:08;;;;;;;9.05;5.00;;;4.30;99.90;;;;;;5009270;28;20097;-74
2022/11/20 13:02:58;;;;;;;7.95;4.88;;;4.40;99.90;;;;;;4992269;28;20129;-74
2022/11/20 13:05:37;;;;;;;7.72;5.03;;;4.40;99.90;;;;;;5009794;28;20077;-75
2022/11/20 13:08:07;;;;;;;8.95;5.32;;;4.40;99.90;;;;;;5009171;28;20366;-75
2022/11/20 13:10:47;;;;;;;9.45;5.22;;;4.40;99.90;;;;;;5009130;28;20045;-75
2022/11/20 13:13:24;;;;;;;7.47;4.63;;;4.40;99.90;;;;;;5010110;28;20126;-75
2022/11/20 13:16:08;;;;;;;8.52;5.40;;;4.40;99.90;;;;;;5009797;28;20058;-73
2022/11/20 13:18:41;;;;;;;8.05;5.55;;;4.30;99.90;;;;;;5010347;28;20137;-75
2022/11/20 13:21:37;;;;;;;10.35;5.60;;;4.30;99.90;;;;;;5008704;28;20053;-75
2022/11/20 13:24:07;;;;;;;7.65;4.93;;;4.30;99.90;;;;;;4987837;28;20054;-76
2022/11/20 13:26:33;;;;;;;7.22;4.80;;;4.40;99.90;;;;;;4988024;28;20126;-74
2022/11/20 13:29:15;;;;;;;7.25;4.65;;;5.00;99.90;;;;;;4987823;28;20592;-74
2022/11/20 13:31:44;;;;;;;8.00;4.68;;;4.50;99.90;;;;;;4971794;28;20050;-75
2022/11/20 13:34:23;;;;;;;8.90;4.90;;;4.50;99.90;;;;;;4988028;28;20066;-74
2022/11/20 13:36:51;;;;;;;8.07;4.82;;;4.40;99.90;;;;;;4971218;28;20101;-73
2022/11/20 13:39:28;;;;;;;8.18;4.68;;;4.40;99.90;;;;;;4971516;28;20046;-74
2022/11/20 13:42:02;;;;;;;9.43;5.30;;;4.40;99.90;;;;;;4987816;28;20054;-74
2022/11/20 13:44:41;;;;;;;8.15;5.07;;;4.40;99.90;;;;;;4987962;28;20046;-73
2022/11/20 13:47:27;;;;;;;8.20;4.90;;;4.50;99.90;;;;;;4972154;28;20101;-73
2022/11/20 13:49:59;;;;;;;8.38;5.40;;;4.40;99.90;;;;;;4971799;28;20065;-73
2022/11/20 13:52:46;;;;;;;7.53;5.15;;;4.40;99.90;;;;;;4971374;28;20493;-76
2022/11/20 13:55:38;;;;;;;7.85;4.90;;;4.40;99.90;;;;;;4987672;28;20050;-74
2022/11/20 13:58:21;;;;;;;7.90;4.68;;;4.30;99.90;;;;;;4987959;28;20100;-75
2022/11/20 14:00:56;;;;;;;8.45;4.82;;;4.30;99.90;;;;;;4998858;28;20053;-76
2022/11/20 14:03:24;;;;;;;7.30;4.28;;;4.80;99.90;;;;;;5012975;28;20069;-73
2022/11/20 14:05:59;;;;;;;7.93;4.93;;;4.20;99.90;;;;;;5013508;28;20138;-72
2022/11/20 14:08:28;;;;;;;;;;;4.20;99.90;;;;;;5013439;28;20074;-75
2022/11/20 14:11:14;;;;;;;8.32;4.70;;;4.10;99.90;;;;;;5013271;28;19928;-73
2022/11/20 14:13:50;;;;;;;7.75;4.82;;;4.00;99.90;;;;;;5011976;28;20555;-74
2022/11/20 14:16:22;;;;;;;7.03;4.90;;;4.00;99.90;;;;;;5013294;28;20054;-73
2022/11/20 14:18:48;;;;;;;9.25;5.00;;;4.00;99.90;;;;;;5011838;28;20054;-73
2022/11/20 14:21:26;;;;;;;8.57;4.70;;;3.90;99.90;;;;;;5013359;28;20050;-74
2022/11/20 14:24:19;;;;;;;9.63;4.65;;;3.90;99.90;;;;;;5012751;28;20096;-73
2022/11/20 14:26:46;;;;;;;8.13;4.50;;;3.90;99.90;;;;;;4990561;28;20062;-73
2022/11/20 14:29:17;;;;;;;7.78;4.47;;;3.90;99.90;;;;;;4974779;28;20490;-73
2022/11/20 14:31:45;;;;;;;6.78;4.70;;;3.80;99.90;;;;;;4990861;28;20813;-74